createdAt,value
2022-11-07T00:02:15.325Z,16.90
2022-11-07T00:04:45.317Z,16.90
2022-11-07T00:07:13.662Z,16.90
2022-11-07T00:09:41.917Z,16.90
2022-11-07T00:12:10.255Z,16.90
2022-11-07T00:14:38.590Z,16.80
2022-11-07T00:17:08.603Z,16.80
2022-11-07T00:19:36.909Z,16.80
2022-11-07T00:22:06.763Z,16.80
2022-11-07T00:24:35.009Z,16.70
2022-11-07T00:27:03.440Z,16.70
2022-11-07T00:29:31.871Z,16.70
2022-11-07T00:32:00.294Z,16.70
2022-11-07T00:34:28.629Z,16.70
2022-11-07T00:36:57.084Z,16.70
2022-11-07T00:39:26.785Z,16.60
2022-11-07T00:41:55.144Z,16.70
2022-11-07T00:44:23.758Z,16.60
2022-11-07T00:46:52.074Z,16.60
2022-11-07T00:49:20.459Z,16.60
2022-11-07T00:51:48.775Z,16.60
2022-11-07T00:54:17.071Z,16.50
2022-11-07T00:56:46.914Z,16.50
2022-11-07T00:59:15.290Z,16.50
2022-11-07T01:01:43.773Z,16.50
2022-11-07T01:04:32.160Z,16.50
2022-11-07T01:07:00.863Z,16.40
2022-11-07T01:09:29.137Z,16.50
2022-11-07T01:11:59.072Z,16.40
2022-11-07T01:14:27.513Z,16.40
2022-11-07T01:16:56.229Z,16.40
2022-11-07T01:19:24.579Z,16.40
2022-11-07T01:21:52.953Z,16.40
2022-11-07T01:24:21.300Z,16.40
2022-11-07T01:26:49.939Z,16.40
2022-11-07T01:29:20.853Z,16.30
2022-11-07T01:31:49.231Z,16.30
2022-11-07T01:34:19.317Z,16.30
2022-11-07T01:36:47.908Z,16.30
2022-11-07T01:39:16.383Z,16.30
2022-11-07T01:41:45.138Z,16.30
2022-11-07T01:44:55.666Z,16.30
2022-11-07T01:47:26.969Z,16.20
2022-11-07T01:49:55.763Z,16.20
2022-11-07T01:52:27.736Z,16.20
2022-11-07T01:55:08.151Z,16.20
2022-11-07T01:57:40.779Z,16.10
2022-11-07T02:00:15.349Z,16.20
2022-11-07T02:02:45.624Z,16.20
2022-11-07T02:05:18.292Z,16.20
2022-11-07T02:07:47.377Z,16.10
2022-11-07T02:10:16.902Z,16.10
2022-11-07T02:12:45.532Z,16.10
2022-11-07T02:15:15.309Z,16.10
2022-11-07T02:17:43.770Z,16.10
2022-11-07T02:20:13.405Z,16.10
2022-11-07T02:22:49.204Z,16.10
2022-11-07T02:25:20.971Z,16.10
2022-11-07T02:27:52.740Z,16.10
2022-11-07T02:30:28.020Z,16.00
2022-11-07T02:32:56.482Z,16.00
2022-11-07T02:35:38.497Z,16.00
2022-11-07T02:38:12.447Z,16.00
2022-11-07T02:40:44.520Z,16.00
2022-11-07T02:43:15.038Z,16.00
2022-11-07T02:45:45.913Z,15.90
2022-11-07T02:48:14.891Z,15.90
2022-11-07T02:50:44.047Z,15.90
2022-11-07T02:53:13.173Z,15.90
2022-11-07T02:55:43.224Z,15.90
2022-11-07T02:58:11.682Z,15.90
2022-11-07T03:00:40.073Z,15.80
2022-11-07T03:03:08.605Z,15.90
2022-11-07T03:05:36.947Z,15.80
2022-11-07T03:08:05.674Z,15.80
2022-11-07T03:10:33.981Z,15.80
2022-11-07T03:13:04.369Z,15.80
2022-11-07T03:15:32.745Z,15.80
2022-11-07T03:18:01.053Z,15.70
2022-11-07T03:20:29.410Z,15.70
2022-11-07T03:22:57.678Z,15.70
2022-11-07T03:25:26.121Z,15.70
2022-11-07T03:27:54.427Z,15.70
2022-11-07T03:30:24.129Z,15.70
2022-11-07T03:32:54.074Z,15.70
2022-11-07T03:35:22.826Z,15.70
2022-11-07T03:37:51.641Z,15.60
2022-11-07T03:40:20.129Z,15.60
2022-11-07T03:42:48.736Z,15.60
2022-11-07T03:45:18.121Z,15.60
2022-11-07T03:47:48.700Z,15.60
2022-11-07T03:50:19.465Z,15.60
2022-11-07T03:52:47.972Z,15.50
2022-11-07T03:55:18.437Z,15.50
2022-11-07T03:57:47.906Z,15.50
2022-11-07T04:00:17.820Z,15.50
2022-11-07T04:02:47.746Z,15.50
2022-11-07T04:05:16.189Z,15.50
2022-11-07T04:07:44.564Z,15.50
2022-11-07T04:10:12.934Z,15.50
2022-11-07T04:12:58.618Z,15.50
2022-11-07T04:15:44.592Z,15.40
2022-11-07T04:18:14.608Z,15.40
2022-11-07T04:20:42.993Z,15.40
2022-11-07T04:23:11.346Z,15.40
2022-11-07T04:25:57.413Z,15.40
2022-11-07T04:28:25.892Z,15.40
2022-11-07T04:30:54.256Z,15.40
2022-11-07T04:33:23.964Z,15.30
2022-11-07T04:35:52.273Z,15.30
2022-11-07T04:38:20.685Z,15.30
2022-11-07T04:40:54.526Z,15.30
2022-11-07T04:43:23.139Z,15.30
2022-11-07T04:45:51.981Z,15.30
2022-11-07T04:48:20.898Z,15.20
2022-11-07T04:50:51.228Z,15.20
2022-11-07T04:53:20.172Z,15.20
2022-11-07T04:55:48.624Z,15.20
2022-11-07T04:58:16.985Z,15.20
2022-11-07T05:00:45.439Z,15.20
2022-11-07T05:03:14.320Z,15.10
2022-11-07T05:05:42.941Z,15.10
2022-11-07T05:08:12.748Z,15.10
2022-11-07T05:10:42.027Z,15.10
2022-11-07T05:13:10.369Z,15.10
2022-11-07T05:15:38.964Z,15.10
2022-11-07T05:18:07.485Z,15.10
2022-11-07T05:20:37.720Z,15.10
2022-11-07T05:23:19.542Z,15.10
2022-11-07T05:25:51.736Z,15.10
2022-11-07T05:28:29.925Z,15.10
2022-11-07T05:31:03.829Z,15.00
2022-11-07T05:33:32.381Z,15.00
2022-11-07T05:36:10.856Z,15.00
2022-11-07T05:38:40.998Z,15.00
2022-11-07T05:41:11.031Z,15.00
2022-11-07T05:43:39.529Z,15.00
2022-11-07T05:46:08.182Z,15.00
2022-11-07T05:48:36.895Z,15.00
2022-11-07T05:51:05.455Z,15.00
2022-11-07T05:53:34.341Z,15.00
2022-11-07T05:56:02.865Z,15.00
2022-11-07T05:58:32.526Z,15.00
2022-11-07T06:01:04.222Z,14.90
2022-11-07T06:03:33.378Z,15.00
2022-11-07T06:06:01.765Z,15.00
2022-11-07T06:08:30.123Z,15.00
2022-11-07T06:10:58.466Z,15.00
2022-11-07T06:13:26.821Z,15.00
2022-11-07T06:15:56.583Z,14.90
2022-11-07T06:18:25.093Z,15.00
2022-11-07T06:20:53.399Z,14.90
2022-11-07T06:23:22.072Z,14.90
2022-11-07T06:25:52.467Z,14.90
2022-11-07T06:28:20.917Z,14.90
2022-11-07T06:30:49.364Z,14.90
2022-11-07T06:33:20.609Z,14.90
2022-11-07T06:35:49.194Z,14.80
2022-11-07T06:38:17.525Z,14.90
2022-11-07T06:40:46.236Z,14.80
2022-11-07T06:43:16.004Z,14.80
2022-11-07T06:45:45.621Z,14.80
2022-11-07T06:48:14.785Z,14.80
2022-11-07T06:50:44.505Z,14.80
2022-11-07T06:53:15.114Z,14.80
2022-11-07T06:55:43.812Z,14.80
2022-11-07T06:58:12.097Z,14.80
2022-11-07T07:00:40.457Z,14.80
2022-11-07T07:03:08.807Z,14.80
2022-11-07T07:05:37.154Z,14.80
2022-11-07T07:08:08.781Z,14.80
2022-11-07T07:10:39.305Z,14.80
2022-11-07T07:13:07.817Z,14.80
2022-11-07T07:15:49.712Z,14.80
2022-11-07T07:18:18.798Z,14.80
2022-11-07T07:20:47.439Z,14.80
2022-11-07T07:23:17.702Z,14.80
2022-11-07T07:25:46.211Z,14.80
2022-11-07T07:28:14.771Z,14.80
2022-11-07T07:30:47.322Z,14.80
2022-11-07T07:33:17.533Z,14.80
2022-11-07T07:35:46.334Z,14.80
2022-11-07T07:38:16.138Z,14.80
2022-11-07T07:40:44.539Z,14.90
2022-11-07T07:43:13.243Z,14.90
2022-11-07T07:45:41.838Z,14.90
2022-11-07T07:48:10.372Z,14.90
2022-11-07T07:50:38.705Z,15.00
2022-11-07T07:53:09.247Z,15.00
2022-11-07T07:55:39.379Z,15.10
2022-11-07T07:58:07.681Z,15.10
2022-11-07T08:00:36.614Z,15.10
2022-11-07T08:03:06.979Z,15.10
2022-11-07T08:05:35.453Z,15.10
2022-11-07T08:08:03.849Z,15.10
2022-11-07T08:10:47.675Z,15.20
2022-11-07T08:13:17.878Z,15.30
2022-11-07T08:15:46.499Z,15.40
2022-11-07T08:18:14.849Z,15.40
2022-11-07T08:20:43.323Z,15.40
2022-11-07T08:23:16.487Z,15.50
2022-11-07T08:25:51.202Z,15.60
2022-11-07T08:28:22.323Z,15.60
2022-11-07T08:30:57.698Z,15.70
2022-11-07T08:33:26.331Z,15.60
2022-11-07T08:35:55.858Z,15.70
2022-11-07T08:38:25.843Z,15.70
2022-11-07T08:40:54.573Z,15.70
2022-11-07T08:43:24.510Z,15.70
2022-11-07T08:45:54.391Z,15.80
2022-11-07T08:48:23.590Z,15.80
2022-11-07T08:50:54.599Z,15.80
2022-11-07T08:53:23.004Z,15.90
2022-11-07T08:55:51.356Z,16.00
2022-11-07T08:58:22.639Z,16.00
2022-11-07T09:00:54.627Z,16.10
2022-11-07T09:03:43.957Z,16.20
2022-11-07T09:06:11.443Z,16.20
2022-11-07T09:08:40.827Z,16.20
2022-11-07T09:11:09.138Z,16.20
2022-11-07T09:13:38.185Z,16.30
2022-11-07T09:16:08.814Z,16.30
2022-11-07T09:18:37.697Z,16.40
2022-11-07T09:21:06.498Z,16.40
2022-11-07T09:23:34.801Z,16.50
2022-11-07T09:26:03.212Z,16.50
2022-11-07T09:28:31.659Z,16.50
2022-11-07T09:31:01.642Z,16.50
2022-11-07T09:33:31.979Z,16.60
2022-11-07T09:36:01.506Z,16.60
2022-11-07T09:38:30.216Z,16.60
2022-11-07T09:41:05.602Z,16.70
2022-11-07T09:43:54.802Z,16.70
2022-11-07T09:46:34.253Z,16.70
2022-11-07T09:49:12.459Z,16.80
2022-11-07T09:51:45.990Z,16.90
2022-11-07T09:54:16.871Z,17.00
2022-11-07T09:56:46.012Z,17.00
2022-11-07T09:59:22.265Z,17.20
2022-11-07T10:01:50.673Z,17.20
2022-11-07T10:04:26.069Z,17.20
2022-11-07T10:07:00.071Z,17.30
2022-11-07T10:09:40.021Z,17.40
2022-11-07T10:12:19.182Z,17.50
2022-11-07T10:15:00.245Z,17.60
2022-11-07T10:17:36.882Z,17.60
2022-11-07T10:20:19.226Z,17.70
2022-11-07T10:23:03.038Z,17.70
2022-11-07T10:25:38.758Z,17.80
2022-11-07T10:28:18.198Z,17.90
2022-11-07T10:30:49.752Z,17.90
2022-11-07T10:33:38.566Z,18.00
2022-11-07T10:36:17.887Z,18.10
2022-11-07T10:38:46.258Z,18.10
2022-11-07T10:41:16.942Z,18.10
2022-11-07T10:43:49.843Z,18.20
2022-11-07T10:46:21.335Z,18.30
2022-11-07T10:48:54.696Z,18.30
2022-11-07T10:51:37.510Z,18.40
2022-11-07T10:54:06.127Z,18.50
2022-11-07T10:56:45.776Z,18.50
2022-11-07T10:59:15.298Z,18.60
2022-11-07T11:01:51.220Z,18.70
2022-11-07T11:04:23.408Z,18.70
2022-11-07T11:07:00.795Z,18.80
2022-11-07T11:09:34.471Z,18.80
2022-11-07T11:12:07.011Z,18.90
2022-11-07T11:14:35.669Z,19.00
2022-11-07T11:17:04.304Z,19.00
2022-11-07T11:19:40.739Z,19.10
2022-11-07T11:22:18.808Z,19.10
2022-11-07T11:24:47.540Z,19.20
2022-11-07T11:27:19.022Z,19.20
2022-11-07T11:29:55.609Z,19.30
2022-11-07T11:32:28.471Z,19.40
2022-11-07T11:35:15.112Z,19.50
2022-11-07T11:37:48.946Z,19.50
2022-11-07T11:40:20.990Z,19.50
2022-11-07T11:42:57.526Z,19.60
2022-11-07T11:45:32.657Z,19.70
2022-11-07T11:48:04.560Z,19.80
2022-11-07T11:50:44.510Z,19.80
2022-11-07T11:53:19.607Z,19.80
2022-11-07T11:55:58.864Z,19.90
2022-11-07T11:58:41.211Z,20.00
2022-11-07T12:01:19.598Z,20.00
2022-11-07T12:04:10.488Z,20.00
2022-11-07T12:06:40.930Z,20.10
2022-11-07T12:09:25.104Z,20.10
2022-11-07T12:12:05.795Z,20.20
2022-11-07T12:15:04.474Z,20.20
2022-11-07T12:17:41.857Z,20.20
2022-11-07T12:20:19.948Z,20.30
2022-11-07T12:23:02.751Z,20.30
2022-11-07T12:25:37.066Z,20.40
2022-11-07T12:28:32.667Z,20.40
2022-11-07T12:31:18.789Z,20.40
2022-11-07T12:33:52.655Z,20.50
2022-11-07T12:36:34.151Z,20.50
2022-11-07T12:39:15.673Z,20.60
2022-11-07T12:41:54.965Z,20.60
2022-11-07T12:44:39.408Z,20.70
2022-11-07T12:47:15.508Z,20.70
2022-11-07T12:50:05.184Z,20.70
2022-11-07T12:52:48.018Z,20.80
2022-11-07T12:55:22.320Z,20.80
2022-11-07T12:57:54.026Z,20.90
2022-11-07T13:00:29.558Z,20.90
2022-11-07T13:03:14.539Z,20.90
2022-11-07T13:05:57.268Z,20.90
2022-11-07T13:08:35.091Z,21.00
2022-11-07T13:11:09.299Z,21.00
2022-11-07T13:14:00.346Z,21.00
2022-11-07T13:16:30.279Z,21.00
2022-11-07T13:19:10.124Z,21.10
2022-11-07T13:21:43.160Z,21.10
2022-11-07T13:24:22.814Z,21.10
2022-11-07T13:26:51.312Z,21.10
2022-11-07T13:29:38.381Z,21.20
2022-11-07T13:32:09.375Z,21.20
2022-11-07T13:34:49.827Z,21.20
2022-11-07T13:37:22.096Z,21.20
2022-11-07T13:39:55.467Z,21.30
2022-11-07T13:42:27.101Z,21.20
2022-11-07T13:45:00.839Z,21.30
2022-11-07T13:47:35.155Z,21.30
2022-11-07T13:50:10.119Z,21.30
2022-11-07T13:52:45.778Z,21.30
2022-11-07T13:55:18.616Z,21.30
2022-11-07T13:57:53.034Z,21.30
2022-11-07T14:00:23.572Z,21.30
2022-11-07T14:02:54.660Z,21.30
2022-11-07T14:05:25.074Z,21.30
2022-11-07T14:07:58.117Z,21.30
2022-11-07T14:10:30.102Z,21.30
2022-11-07T14:13:07.331Z,21.30
2022-11-07T14:15:44.280Z,21.30
2022-11-07T14:18:15.648Z,21.30
2022-11-07T14:20:48.146Z,21.30
2022-11-07T14:23:16.721Z,21.30
2022-11-07T14:25:45.225Z,21.30
2022-11-07T14:28:18.013Z,21.20
2022-11-07T14:30:51.968Z,21.20
2022-11-07T14:33:22.703Z,21.20
2022-11-07T14:35:52.755Z,21.20
2022-11-07T14:38:25.333Z,21.20
2022-11-07T14:40:56.139Z,21.20
2022-11-07T14:43:26.670Z,21.10
2022-11-07T14:46:17.885Z,21.10
2022-11-07T14:48:47.550Z,21.10
2022-11-07T14:51:19.190Z,21.00
2022-11-07T14:53:58.302Z,21.10
2022-11-07T14:56:30.894Z,21.10
2022-11-07T14:58:59.766Z,21.10
2022-11-07T15:01:32.903Z,21.10
2022-11-07T15:04:05.054Z,21.10
2022-11-07T15:06:35.747Z,21.00
2022-11-07T15:09:05.958Z,21.00
2022-11-07T15:11:36.003Z,21.00
2022-11-07T15:14:06.694Z,20.90
2022-11-07T15:16:39.138Z,20.90
2022-11-07T15:19:11.237Z,21.00
2022-11-07T15:21:52.049Z,20.90
2022-11-07T15:24:34.427Z,20.90
2022-11-07T15:27:04.237Z,20.90
2022-11-07T15:29:34.532Z,20.90
2022-11-07T15:32:15.428Z,20.90
2022-11-07T15:35:03.868Z,20.80
2022-11-07T15:37:33.146Z,20.80
2022-11-07T15:40:01.611Z,20.80
2022-11-07T15:42:30.413Z,20.70
2022-11-07T15:44:58.765Z,20.70
2022-11-07T15:47:28.459Z,20.70
2022-11-07T15:49:56.857Z,20.60
2022-11-07T15:52:25.241Z,20.60
2022-11-07T15:54:53.484Z,20.50
2022-11-07T15:57:22.020Z,20.50
2022-11-07T15:59:50.626Z,20.50
2022-11-07T16:02:19.546Z,20.40
2022-11-07T16:04:49.368Z,20.40
2022-11-07T16:07:21.122Z,20.40
2022-11-07T16:09:49.618Z,20.30
2022-11-07T16:12:19.816Z,20.30
2022-11-07T16:14:48.204Z,20.30
2022-11-07T16:17:18.096Z,20.20
2022-11-07T16:19:46.787Z,20.20
2022-11-07T16:22:17.263Z,20.10
2022-11-07T16:24:45.712Z,20.10
2022-11-07T16:27:18.206Z,20.10
2022-11-07T16:29:46.631Z,20.00
2022-11-07T16:32:18.273Z,20.00
2022-11-07T16:34:47.883Z,20.00
2022-11-07T16:37:17.597Z,20.00
2022-11-07T16:39:45.922Z,19.90
2022-11-07T16:42:16.686Z,19.90
2022-11-07T16:44:45.358Z,19.90
2022-11-07T16:47:16.320Z,19.80
2022-11-07T16:49:45.221Z,19.80
2022-11-07T16:52:16.093Z,19.80
2022-11-07T16:54:46.571Z,19.80
2022-11-07T16:57:16.932Z,19.80
2022-11-07T16:59:46.389Z,19.70
2022-11-07T17:02:20.782Z,19.70
2022-11-07T17:04:50.117Z,19.70
2022-11-07T17:07:19.569Z,19.60
2022-11-07T17:09:49.495Z,19.60
2022-11-07T17:12:19.670Z,19.60
2022-11-07T17:14:48.296Z,19.60
2022-11-07T17:17:17.820Z,19.60
2022-11-07T17:19:46.506Z,19.50
2022-11-07T17:22:15.848Z,19.50
2022-11-07T17:24:45.192Z,19.50
2022-11-07T17:27:22.114Z,19.50
2022-11-07T17:29:51.122Z,19.50
2022-11-07T17:32:19.696Z,19.40
2022-11-07T17:34:54.970Z,19.40
2022-11-07T17:37:33.002Z,19.40
2022-11-07T17:40:01.371Z,19.40
2022-11-07T17:42:36.652Z,19.40
2022-11-07T17:45:07.798Z,19.30
2022-11-07T17:47:36.257Z,19.30
2022-11-07T17:50:05.525Z,19.30
2022-11-07T17:52:34.056Z,19.30
2022-11-07T17:55:02.476Z,19.30
2022-11-07T17:57:32.535Z,19.20
2022-11-07T18:00:00.922Z,19.30
2022-11-07T18:02:29.334Z,19.20
2022-11-07T18:04:57.764Z,19.20
2022-11-07T18:07:26.396Z,19.20
2022-11-07T18:09:54.948Z,19.20
2022-11-07T18:12:23.513Z,19.20
2022-11-07T18:14:53.352Z,19.10
2022-11-07T18:17:21.975Z,19.20
2022-11-07T18:19:50.320Z,19.10
2022-11-07T18:22:18.634Z,19.10
2022-11-07T18:24:47.609Z,19.10
2022-11-07T18:27:16.015Z,19.10
2022-11-07T18:29:44.618Z,19.10
2022-11-07T18:32:14.425Z,19.10
2022-11-07T18:34:42.968Z,19.10
2022-11-07T18:37:11.388Z,19.10
2022-11-07T18:39:40.042Z,19.00
2022-11-07T18:42:08.421Z,19.10
2022-11-07T18:44:36.850Z,19.00
2022-11-07T18:47:05.342Z,19.00
2022-11-07T18:49:35.319Z,19.00
2022-11-07T18:52:03.647Z,19.00
2022-11-07T18:54:32.202Z,19.00
2022-11-07T18:57:00.686Z,19.00
2022-11-07T18:59:29.075Z,19.10
2022-11-07T19:01:57.493Z,19.00
2022-11-07T19:04:25.891Z,19.00
2022-11-07T19:06:58.219Z,19.00
2022-11-07T19:09:28.719Z,19.00
2022-11-07T19:11:57.910Z,19.00
2022-11-07T19:14:26.303Z,19.00
2022-11-07T19:16:54.903Z,19.00
2022-11-07T19:19:23.861Z,19.00
2022-11-07T19:21:52.276Z,19.00
2022-11-07T19:24:22.054Z,18.90
2022-11-07T19:26:50.360Z,19.00
2022-11-07T19:29:18.704Z,18.90
2022-11-07T19:31:47.167Z,18.90
2022-11-07T19:34:17.073Z,18.90
2022-11-07T19:36:45.480Z,18.90
2022-11-07T19:39:13.741Z,18.90
2022-11-07T19:41:43.606Z,18.90
2022-11-07T19:44:12.068Z,18.90
2022-11-07T19:46:40.438Z,18.90
2022-11-07T19:49:08.849Z,18.90
2022-11-07T19:51:37.641Z,18.90
2022-11-07T19:54:07.643Z,18.90
2022-11-07T19:56:36.045Z,18.80
2022-11-07T19:59:05.854Z,18.90
2022-11-07T20:01:35.454Z,18.90
2022-11-07T20:04:04.120Z,18.90
2022-11-07T20:06:36.621Z,18.80
2022-11-07T20:09:07.916Z,18.90
2022-11-07T20:11:36.765Z,18.90
2022-11-07T20:14:07.424Z,18.80
2022-11-07T20:16:39.586Z,18.90
2022-11-07T20:19:08.849Z,18.80
2022-11-07T20:21:37.926Z,18.90
2022-11-07T20:24:09.451Z,18.90
2022-11-07T20:26:39.281Z,18.80
2022-11-07T20:29:09.015Z,18.80
2022-11-07T20:31:40.099Z,18.80
2022-11-07T20:34:09.569Z,18.80
2022-11-07T20:36:37.988Z,18.80
2022-11-07T20:39:06.552Z,18.70
2022-11-07T20:41:35.746Z,18.70
2022-11-07T20:44:06.779Z,18.80
2022-11-07T20:46:40.116Z,18.80
2022-11-07T20:49:10.381Z,18.80
2022-11-07T20:51:38.893Z,18.80
2022-11-07T20:54:07.477Z,18.80
2022-11-07T20:56:36.209Z,18.80
2022-11-07T20:59:04.522Z,18.80
2022-11-07T21:01:36.785Z,18.80
2022-11-07T21:04:09.309Z,18.80
2022-11-07T21:06:37.638Z,18.80
2022-11-07T21:09:06.181Z,18.70
2022-11-07T21:11:34.974Z,18.80
2022-11-07T21:14:03.575Z,18.70
2022-11-07T21:16:34.619Z,18.70
2022-11-07T21:19:05.124Z,18.70
2022-11-07T21:21:34.893Z,18.70
2022-11-07T21:24:04.115Z,18.70
2022-11-07T21:26:35.699Z,18.70
2022-11-07T21:29:06.761Z,18.70
2022-11-07T21:31:39.253Z,18.70
2022-11-07T21:34:09.360Z,18.70
2022-11-07T21:36:39.309Z,18.70
2022-11-07T21:39:08.935Z,18.70
2022-11-07T21:41:38.469Z,18.70
2022-11-07T21:44:07.267Z,18.70
2022-11-07T21:46:36.057Z,18.70
2022-11-07T21:49:06.376Z,18.70
2022-11-07T21:51:36.354Z,18.60
2022-11-07T21:54:07.668Z,18.60
2022-11-07T21:56:38.001Z,18.60
2022-11-07T21:59:08.972Z,18.60
2022-11-07T22:01:40.112Z,18.60
2022-11-07T22:04:11.922Z,18.60
2022-11-07T22:06:43.259Z,18.60
2022-11-07T22:09:16.143Z,18.60
2022-11-07T22:11:45.576Z,18.50
2022-11-07T22:14:16.159Z,18.60
2022-11-07T22:16:44.861Z,18.50
2022-11-07T22:19:13.638Z,18.50
2022-11-07T22:21:43.419Z,18.50
2022-11-07T22:24:13.456Z,18.50
2022-11-07T22:26:41.921Z,18.50
2022-11-07T22:29:10.255Z,18.50
2022-11-07T22:31:39.484Z,18.40
2022-11-07T22:34:07.739Z,18.40
2022-11-07T22:36:36.696Z,18.40
2022-11-07T22:39:05.772Z,18.40
2022-11-07T22:41:35.986Z,18.40
2022-11-07T22:44:05.157Z,18.40
2022-11-07T22:46:33.675Z,18.30
2022-11-07T22:49:02.287Z,18.30
2022-11-07T22:51:32.602Z,18.30
2022-11-07T22:54:03.534Z,18.30
2022-11-07T22:56:32.399Z,18.30
2022-11-07T22:59:02.478Z,18.30
2022-11-07T23:01:33.367Z,18.20
2022-11-07T23:04:01.980Z,18.20
2022-11-07T23:06:31.766Z,18.20
2022-11-07T23:09:01.293Z,18.20
2022-11-07T23:11:48.323Z,18.10
2022-11-07T23:14:21.051Z,18.10
2022-11-07T23:16:51.305Z,18.10
2022-11-07T23:19:21.684Z,18.10
2022-11-07T23:21:50.989Z,18.10
2022-11-07T23:24:20.631Z,18.10
2022-11-07T23:26:49.455Z,18.10
2022-11-07T23:29:21.256Z,18.00
2022-11-07T23:31:50.883Z,18.00
2022-11-07T23:34:20.141Z,18.00
2022-11-07T23:36:51.999Z,18.00
2022-11-07T23:39:22.142Z,18.00
2022-11-07T23:41:51.009Z,17.90
2022-11-07T23:44:20.809Z,17.90
2022-11-07T23:47:06.910Z,17.90
2022-11-07T23:49:52.814Z,17.90
2022-11-07T23:52:21.310Z,17.90
2022-11-07T23:55:12.428Z,17.90
2022-11-07T23:57:54.520Z,17.80
